createdAt,value
2018-05-31T00:00:39.978Z,17.22
2018-05-31T00:01:40.223Z,17.25
2018-05-31T00:02:40.469Z,17.19
2018-05-31T00:03:40.715Z,17.23
2018-05-31T00:04:40.961Z,17.26
2018-05-31T00:05:41.208Z,17.19
2018-05-31T00:06:41.454Z,17.23
2018-05-31T00:07:41.699Z,17.21
2018-05-31T00:08:41.945Z,17.18
2018-05-31T00:09:42.190Z,17.28
2018-05-31T00:10:42.436Z,17.22
2018-05-31T00:11:42.684Z,17.21
2018-05-31T00:12:42.925Z,17.19
2018-05-31T00:13:43.173Z,17.12
2018-05-31T00:14:43.420Z,17.11
2018-05-31T00:15:43.665Z,17.16
2018-05-31T00:16:43.910Z,17.23
2018-05-31T00:17:44.156Z,17.28
2018-05-31T00:18:44.402Z,17.25
2018-05-31T00:19:44.647Z,17.31
2018-05-31T00:20:44.891Z,17.34
2018-05-31T00:21:45.137Z,17.28
2018-05-31T00:22:45.382Z,17.14
2018-05-31T00:23:45.628Z,17.04
2018-05-31T00:24:45.880Z,16.93
2018-05-31T00:25:46.118Z,17.04
2018-05-31T00:26:46.364Z,17.07
2018-05-31T00:27:46.608Z,17.04
2018-05-31T00:28:46.854Z,17.16
2018-05-31T00:29:47.099Z,17.12
2018-05-31T00:30:47.347Z,17.07
2018-05-31T00:31:47.590Z,16.89
2018-05-31T00:32:47.835Z,16.68
2018-05-31T00:33:48.078Z,16.75
2018-05-31T00:34:48.325Z,16.89
2018-05-31T00:35:48.570Z,17.00
2018-05-31T00:36:48.814Z,17.15
2018-05-31T00:37:49.059Z,17.28
2018-05-31T00:38:49.305Z,17.23
2018-05-31T00:39:49.549Z,17.26
2018-05-31T00:40:49.793Z,17.34
2018-05-31T00:41:50.039Z,17.37
2018-05-31T00:42:50.283Z,17.38
2018-05-31T00:43:50.528Z,17.38
2018-05-31T00:44:50.773Z,17.44
2018-05-31T00:45:51.018Z,17.40
2018-05-31T00:46:51.264Z,17.23
2018-05-31T00:47:51.507Z,17.31
2018-05-31T00:48:51.751Z,17.25
2018-05-31T00:49:51.995Z,17.21
2018-05-31T00:50:52.240Z,17.18
2018-05-31T00:51:52.485Z,17.00
2018-05-31T00:52:52.729Z,17.06
2018-05-31T00:53:52.975Z,17.01
2018-05-31T00:54:53.219Z,16.91
2018-05-31T00:55:53.464Z,16.93
2018-05-31T00:56:53.711Z,16.86
2018-05-31T00:57:53.954Z,16.83
2018-05-31T00:58:54.198Z,16.86
2018-05-31T00:59:54.443Z,16.86
2018-05-31T01:00:54.688Z,16.89
2018-05-31T01:01:54.931Z,16.88
2018-05-31T01:02:55.176Z,16.85
2018-05-31T01:03:55.421Z,16.79
2018-05-31T01:04:55.666Z,16.81
2018-05-31T01:05:55.911Z,16.73
2018-05-31T01:06:56.156Z,16.70
2018-05-31T01:07:56.401Z,16.78
2018-05-31T01:08:56.645Z,16.75
2018-05-31T01:09:56.890Z,16.64
2018-05-31T01:10:57.135Z,16.70
2018-05-31T01:11:57.398Z,16.67
2018-05-31T01:12:57.626Z,16.64
2018-05-31T01:13:57.869Z,16.64
2018-05-31T01:14:58.114Z,16.53
2018-05-31T01:15:58.359Z,16.56
2018-05-31T01:16:58.604Z,16.43
2018-05-31T01:17:58.848Z,16.52
2018-05-31T01:18:59.093Z,16.56
2018-05-31T01:19:59.337Z,16.38
2018-05-31T01:20:59.581Z,16.50
2018-05-31T01:21:59.826Z,16.66
2018-05-31T01:23:00.071Z,16.64
2018-05-31T01:24:00.317Z,16.58
2018-05-31T01:25:00.564Z,16.64
2018-05-31T01:26:00.809Z,16.66
2018-05-31T01:27:01.054Z,16.73
2018-05-31T01:28:01.300Z,16.76
2018-05-31T01:29:01.545Z,16.76
2018-05-31T01:30:01.789Z,16.82
2018-05-31T01:31:02.035Z,16.89
2018-05-31T01:32:02.293Z,16.83
2018-05-31T01:33:02.526Z,16.83
2018-05-31T01:34:02.770Z,16.85
2018-05-31T01:35:03.015Z,16.71
2018-05-31T01:36:03.262Z,16.70
2018-05-31T01:37:03.508Z,16.60
2018-05-31T01:38:03.752Z,16.64
2018-05-31T01:39:03.996Z,16.58
2018-05-31T01:40:04.247Z,16.45
2018-05-31T01:41:04.486Z,16.39
2018-05-31T01:42:04.733Z,16.38
2018-05-31T01:43:04.977Z,16.34
2018-05-31T01:44:05.220Z,16.34
2018-05-31T01:45:05.465Z,16.50
2018-05-31T01:46:05.709Z,16.60
2018-05-31T01:47:05.955Z,16.64
2018-05-31T01:48:06.198Z,16.63
2018-05-31T01:49:06.444Z,16.61
2018-05-31T01:50:06.689Z,16.60
2018-05-31T01:51:06.934Z,16.56
2018-05-31T01:52:07.179Z,16.60
2018-05-31T01:53:07.423Z,16.50
2018-05-31T01:54:07.667Z,16.53
2018-05-31T01:55:07.913Z,16.52
2018-05-31T01:56:08.161Z,16.63
2018-05-31T01:57:08.401Z,16.56
2018-05-31T01:58:08.646Z,16.75
2018-05-31T01:59:08.891Z,16.61
2018-05-31T02:00:09.137Z,16.57
2018-05-31T02:01:09.380Z,16.67
2018-05-31T02:02:09.626Z,16.61
2018-05-31T02:03:09.872Z,16.61
2018-05-31T02:04:10.118Z,16.71
2018-05-31T02:05:10.361Z,16.63
2018-05-31T02:06:10.606Z,16.71
2018-05-31T02:07:10.851Z,16.70
2018-05-31T02:08:11.097Z,16.64
2018-05-31T02:09:11.344Z,16.46
2018-05-31T02:10:11.587Z,16.39
2018-05-31T02:11:11.838Z,16.34
2018-05-31T02:12:12.077Z,16.45
2018-05-31T02:13:12.321Z,16.34
2018-05-31T02:14:12.566Z,16.30
2018-05-31T02:15:12.811Z,16.33
2018-05-31T02:16:13.055Z,16.25
2018-05-31T02:17:13.300Z,16.39
2018-05-31T02:18:13.544Z,16.35
2018-05-31T02:19:13.788Z,16.42
2018-05-31T02:20:14.088Z,16.56
2018-05-31T02:21:14.277Z,16.52
2018-05-31T02:22:14.522Z,16.33
2018-05-31T02:23:14.767Z,16.24
2018-05-31T02:24:15.011Z,16.20
2018-05-31T02:25:15.258Z,16.09
2018-05-31T02:26:15.501Z,16.05
2018-05-31T02:27:15.746Z,16.08
2018-05-31T02:28:15.990Z,15.90
2018-05-31T02:29:16.234Z,15.92
2018-05-31T02:30:16.480Z,15.96
2018-05-31T02:31:16.724Z,15.94
2018-05-31T02:32:16.969Z,16.00
2018-05-31T02:33:17.212Z,15.96
2018-05-31T02:34:17.457Z,15.90
2018-05-31T02:35:17.707Z,15.97
2018-05-31T02:36:17.949Z,16.02
2018-05-31T02:37:18.194Z,15.92
2018-05-31T02:38:18.438Z,16.00
2018-05-31T02:39:18.682Z,15.90
2018-05-31T02:40:18.926Z,15.89
2018-05-31T02:41:19.172Z,15.84
2018-05-31T02:42:19.416Z,15.84
2018-05-31T02:43:19.662Z,15.89
2018-05-31T02:44:19.908Z,15.84
2018-05-31T02:45:20.152Z,15.82
2018-05-31T02:46:20.395Z,15.97
2018-05-31T02:47:20.640Z,15.84
2018-05-31T02:48:20.884Z,15.78
2018-05-31T02:49:21.129Z,15.71
2018-05-31T02:50:21.375Z,15.69
2018-05-31T02:51:21.624Z,15.80
2018-05-31T02:52:21.864Z,15.84
2018-05-31T02:53:22.112Z,15.94
2018-05-31T02:54:22.353Z,15.92
2018-05-31T02:55:22.599Z,15.94
2018-05-31T02:56:22.843Z,16.02
2018-05-31T02:57:23.088Z,15.97
2018-05-31T02:58:23.332Z,15.93
2018-05-31T02:59:23.578Z,16.00
2018-05-31T03:00:23.822Z,15.89
2018-05-31T03:01:24.066Z,15.94
2018-05-31T03:02:24.312Z,15.90
2018-05-31T03:03:24.553Z,15.86
2018-05-31T03:04:24.799Z,15.87
2018-05-31T03:05:25.041Z,15.80
2018-05-31T03:06:25.285Z,15.86
2018-05-31T03:07:25.530Z,15.86
2018-05-31T03:08:25.772Z,15.87
2018-05-31T03:09:26.016Z,15.82
2018-05-31T03:10:26.260Z,15.86
2018-05-31T03:11:26.505Z,15.94
2018-05-31T03:12:26.747Z,15.92
2018-05-31T03:13:26.990Z,15.84
2018-05-31T03:14:27.235Z,15.87
2018-05-31T03:15:27.482Z,15.89
2018-05-31T03:16:27.725Z,15.93
2018-05-31T03:17:27.969Z,16.00
2018-05-31T03:18:28.213Z,15.90
2018-05-31T03:19:28.455Z,15.89
2018-05-31T03:20:28.700Z,15.96
2018-05-31T03:21:28.944Z,15.87
2018-05-31T03:22:29.185Z,15.90
2018-05-31T03:23:29.430Z,15.96
2018-05-31T03:24:29.673Z,15.87
2018-05-31T03:25:29.918Z,15.92
2018-05-31T03:26:30.163Z,15.90
2018-05-31T03:27:30.408Z,15.86
2018-05-31T03:28:30.655Z,15.86
2018-05-31T03:29:30.896Z,15.86
2018-05-31T03:30:31.139Z,15.89
2018-05-31T03:31:31.383Z,15.94
2018-05-31T03:32:31.628Z,15.96
2018-05-31T03:33:31.872Z,15.96
2018-05-31T03:34:32.116Z,15.93
2018-05-31T03:35:32.361Z,15.97
2018-05-31T03:36:32.603Z,15.90
2018-05-31T03:37:32.846Z,16.05
2018-05-31T03:38:33.080Z,16.08
2018-05-31T03:39:33.322Z,16.05
2018-05-31T03:40:33.595Z,16.08
2018-05-31T03:41:33.839Z,16.05
2018-05-31T03:42:34.082Z,16.09
2018-05-31T03:43:34.324Z,16.07
2018-05-31T03:44:34.568Z,16.07
2018-05-31T03:45:34.814Z,16.11
2018-05-31T03:46:35.064Z,16.24
2018-05-31T03:47:35.303Z,16.20
2018-05-31T03:48:35.537Z,16.21
2018-05-31T03:49:35.795Z,16.15
2018-05-31T03:50:36.031Z,16.15
2018-05-31T03:51:36.276Z,16.04
2018-05-31T03:52:36.513Z,16.12
2018-05-31T03:53:36.758Z,16.09
2018-05-31T03:54:36.999Z,16.14
2018-05-31T03:55:37.251Z,16.14
2018-05-31T03:56:37.488Z,16.27
2018-05-31T03:57:37.741Z,16.33
2018-05-31T03:58:37.976Z,16.42
2018-05-31T03:59:38.231Z,16.48
2018-05-31T04:00:38.468Z,16.50
2018-05-31T04:01:38.708Z,16.53
2018-05-31T04:02:38.948Z,16.61
2018-05-31T04:03:39.195Z,16.64
2018-05-31T04:04:39.436Z,16.61
2018-05-31T04:05:39.681Z,16.70
2018-05-31T04:06:39.924Z,16.76
2018-05-31T04:07:40.166Z,16.79
2018-05-31T04:08:40.412Z,16.75
2018-05-31T04:09:40.657Z,16.83
2018-05-31T04:10:40.901Z,16.78
2018-05-31T04:11:41.144Z,16.76
2018-05-31T04:12:41.388Z,16.83
2018-05-31T04:13:41.632Z,16.86
2018-05-31T04:14:41.877Z,16.89
2018-05-31T04:15:42.124Z,16.85
2018-05-31T04:16:42.379Z,16.85
2018-05-31T04:17:42.623Z,16.82
2018-05-31T04:18:42.868Z,16.88
2018-05-31T04:19:43.171Z,16.81
2018-05-31T04:20:43.415Z,16.86
2018-05-31T04:21:43.659Z,16.75
2018-05-31T04:22:43.902Z,16.70
2018-05-31T04:23:44.148Z,16.60
2018-05-31T04:24:44.394Z,16.70
2018-05-31T04:25:44.636Z,16.63
2018-05-31T04:26:44.880Z,16.64
2018-05-31T04:27:45.124Z,16.57
2018-05-31T04:28:45.368Z,16.53
2018-05-31T04:29:45.613Z,16.48
2018-05-31T04:30:45.857Z,16.53
2018-05-31T04:31:46.102Z,16.64
2018-05-31T04:32:46.345Z,16.67
2018-05-31T04:33:46.590Z,16.66
2018-05-31T04:34:46.836Z,16.75
2018-05-31T04:35:47.086Z,16.81
2018-05-31T04:36:47.327Z,16.76
2018-05-31T04:37:47.574Z,16.75
2018-05-31T04:38:47.815Z,16.86
2018-05-31T04:39:48.058Z,16.93
2018-05-31T04:40:48.303Z,16.97
2018-05-31T04:41:48.547Z,17.03
2018-05-31T04:42:48.791Z,17.07
2018-05-31T04:43:49.037Z,17.15
2018-05-31T04:44:49.282Z,17.16
2018-05-31T04:45:49.528Z,17.25
2018-05-31T04:46:49.774Z,17.25
2018-05-31T04:47:50.017Z,17.34
2018-05-31T04:48:50.264Z,17.51
2018-05-31T04:49:50.509Z,17.55
2018-05-31T04:50:50.753Z,17.64
2018-05-31T04:51:50.999Z,17.71
2018-05-31T04:52:51.243Z,17.81
2018-05-31T04:53:51.489Z,17.86
2018-05-31T04:54:51.734Z,17.87
2018-05-31T04:55:51.980Z,17.87
2018-05-31T04:56:52.226Z,18.02
2018-05-31T04:57:52.472Z,18.03
2018-05-31T04:58:52.718Z,18.03
2018-05-31T04:59:52.963Z,18.02
2018-05-31T05:00:53.212Z,18.11
2018-05-31T05:01:53.455Z,18.12
2018-05-31T05:02:53.737Z,18.17
2018-05-31T05:03:53.947Z,18.18
2018-05-31T05:04:54.187Z,18.10
2018-05-31T05:05:54.434Z,18.11
2018-05-31T05:06:54.680Z,18.17
2018-05-31T05:07:54.958Z,18.17
2018-05-31T05:08:55.169Z,18.25
2018-05-31T05:09:55.415Z,18.20
2018-05-31T05:10:55.661Z,18.26
2018-05-31T05:11:55.906Z,18.36
2018-05-31T05:12:56.151Z,18.30
2018-05-31T05:13:56.396Z,18.32
2018-05-31T05:14:56.648Z,18.36
2018-05-31T05:15:56.888Z,18.51
2018-05-31T05:16:57.134Z,18.65
2018-05-31T05:17:57.381Z,18.63
2018-05-31T05:18:57.627Z,18.63
2018-05-31T05:19:57.872Z,18.76
2018-05-31T05:20:58.118Z,18.69
2018-05-31T05:21:58.364Z,18.75
2018-05-31T05:22:58.609Z,18.82
2018-05-31T05:23:58.855Z,18.81
2018-05-31T05:24:59.103Z,18.80
2018-05-31T05:25:59.349Z,18.82
2018-05-31T05:26:59.595Z,18.85
2018-05-31T05:27:59.842Z,18.98
2018-05-31T05:29:00.088Z,19.02
2018-05-31T05:30:00.332Z,19.08
2018-05-31T05:31:00.577Z,19.16
2018-05-31T05:32:00.824Z,19.21
2018-05-31T05:33:01.083Z,19.29
2018-05-31T05:34:01.317Z,19.36
2018-05-31T05:35:01.567Z,19.40
2018-05-31T05:36:01.813Z,19.43
2018-05-31T05:37:02.059Z,19.55
2018-05-31T05:38:02.306Z,19.55
2018-05-31T05:39:02.550Z,19.59
2018-05-31T05:40:02.795Z,19.77
2018-05-31T05:41:03.041Z,19.81
2018-05-31T05:42:03.288Z,19.83
2018-05-31T05:43:03.533Z,19.86
2018-05-31T05:44:03.780Z,19.81
2018-05-31T05:45:04.026Z,19.81
2018-05-31T05:46:04.273Z,20.01
2018-05-31T05:47:04.516Z,20.10
2018-05-31T05:48:04.764Z,20.11
2018-05-31T05:49:05.011Z,20.11
2018-05-31T05:50:05.296Z,20.14
2018-05-31T05:51:05.503Z,20.17
2018-05-31T05:52:05.752Z,20.20
2018-05-31T05:53:05.995Z,20.20
2018-05-31T05:54:06.242Z,20.33
2018-05-31T05:55:06.488Z,20.33
2018-05-31T05:56:06.735Z,20.32
2018-05-31T05:57:06.984Z,20.32
2018-05-31T05:58:07.227Z,20.35
2018-05-31T05:59:07.478Z,20.42
2018-05-31T06:00:07.721Z,20.58
2018-05-31T06:01:07.966Z,20.70
2018-05-31T06:02:08.212Z,20.64
2018-05-31T06:03:08.461Z,20.77
2018-05-31T06:04:08.709Z,20.88
2018-05-31T06:05:08.956Z,20.99
2018-05-31T06:06:09.202Z,20.94
2018-05-31T06:07:09.453Z,20.95
2018-05-31T06:08:09.695Z,20.87
2018-05-31T06:09:09.944Z,20.77
2018-05-31T06:10:10.260Z,20.80
2018-05-31T06:11:10.436Z,20.69
2018-05-31T06:12:10.682Z,20.72
2018-05-31T06:13:10.927Z,20.88
2018-05-31T06:14:11.173Z,20.92
2018-05-31T06:15:11.421Z,20.84
2018-05-31T06:16:11.668Z,20.99
2018-05-31T06:17:11.912Z,21.13
2018-05-31T06:18:12.160Z,21.22
2018-05-31T06:19:12.407Z,21.49
2018-05-31T06:20:12.653Z,21.61
2018-05-31T06:21:12.899Z,21.52
2018-05-31T06:22:13.146Z,21.77
2018-05-31T06:23:13.393Z,21.86
2018-05-31T06:24:13.639Z,21.96
2018-05-31T06:25:13.887Z,22.05
2018-05-31T06:26:14.167Z,22.20
2018-05-31T06:27:14.379Z,22.28
2018-05-31T06:28:14.623Z,22.43
2018-05-31T06:29:14.871Z,22.49
2018-05-31T06:30:15.119Z,22.65
2018-05-31T06:31:15.366Z,22.86
2018-05-31T06:32:15.615Z,22.90
2018-05-31T06:33:15.866Z,22.91
2018-05-31T06:34:16.115Z,23.05
2018-05-31T06:35:16.366Z,23.17
2018-05-31T06:36:16.618Z,23.19
2018-05-31T06:37:16.870Z,23.31
2018-05-31T06:38:17.117Z,23.42
2018-05-31T06:39:17.363Z,23.36
2018-05-31T06:40:17.611Z,23.43
2018-05-31T06:41:17.859Z,23.31
2018-05-31T06:42:18.107Z,23.36
2018-05-31T06:43:18.357Z,23.39
2018-05-31T06:44:18.605Z,23.32
2018-05-31T06:45:18.855Z,23.04
2018-05-31T06:46:19.104Z,23.20
2018-05-31T06:47:19.355Z,23.19
2018-05-31T06:48:19.602Z,23.35
2018-05-31T06:49:19.850Z,23.38
2018-05-31T06:50:20.097Z,23.33
2018-05-31T06:51:20.349Z,23.39
2018-05-31T06:52:20.599Z,23.05
2018-05-31T06:53:20.843Z,22.75
2018-05-31T06:54:21.139Z,22.22
2018-05-31T06:55:21.371Z,22.06
2018-05-31T06:56:21.592Z,21.94
2018-05-31T06:57:21.837Z,21.83
2018-05-31T06:58:22.089Z,21.71
2018-05-31T06:59:22.334Z,21.77
2018-05-31T07:00:22.582Z,21.75
2018-05-31T07:01:22.832Z,21.72
2018-05-31T07:02:23.080Z,21.68
2018-05-31T07:03:23.332Z,21.99
2018-05-31T07:04:23.576Z,22.22
2018-05-31T07:05:23.826Z,22.39
2018-05-31T07:06:24.073Z,22.43
2018-05-31T07:07:24.319Z,22.67
2018-05-31T07:08:24.565Z,22.77
2018-05-31T07:09:24.812Z,22.85
2018-05-31T07:10:25.060Z,22.98
2018-05-31T07:11:25.308Z,23.39
2018-05-31T07:12:25.555Z,23.54
2018-05-31T07:13:25.804Z,23.58
2018-05-31T07:14:26.054Z,23.94
2018-05-31T07:15:26.301Z,24.39
2018-05-31T07:16:26.550Z,25.05
2018-05-31T07:17:26.802Z,25.73
2018-05-31T07:18:27.048Z,26.48
2018-05-31T07:19:27.295Z,27.39
2018-05-31T07:20:27.546Z,28.07
2018-05-31T07:21:27.794Z,28.71
2018-05-31T07:22:28.043Z,29.33
2018-05-31T07:23:28.294Z,29.79
2018-05-31T07:24:28.547Z,30.10
2018-05-31T07:25:28.794Z,30.42
2018-05-31T07:26:29.046Z,30.49
2018-05-31T07:27:29.299Z,30.49
2018-05-31T07:28:29.545Z,30.47
2018-05-31T07:29:29.800Z,30.82
2018-05-31T07:30:30.048Z,31.16
2018-05-31T07:31:30.300Z,31.69
2018-05-31T07:32:30.551Z,31.89
2018-05-31T07:33:30.803Z,32.14
2018-05-31T07:34:31.057Z,32.14
2018-05-31T07:35:31.305Z,32.28
2018-05-31T07:36:31.556Z,32.01
2018-05-31T07:37:31.807Z,32.00
2018-05-31T07:38:32.059Z,32.50
2018-05-31T07:39:32.312Z,32.07
2018-05-31T07:40:32.564Z,30.08
2018-05-31T07:41:32.829Z,29.34
2018-05-31T07:42:33.069Z,30.11
2018-05-31T07:43:33.323Z,30.99
2018-05-31T07:44:33.577Z,30.64
2018-05-31T07:45:33.829Z,31.56
2018-05-31T07:46:34.084Z,32.07
2018-05-31T07:47:34.338Z,32.43
2018-05-31T07:48:34.593Z,32.66
2018-05-31T07:49:34.867Z,33.01
2018-05-31T07:50:35.127Z,33.34
2018-05-31T07:51:35.379Z,33.78
2018-05-31T07:52:35.633Z,33.54
2018-05-31T07:53:35.888Z,33.00
2018-05-31T07:54:36.140Z,32.11
2018-05-31T07:55:36.395Z,31.06
2018-05-31T07:56:36.650Z,30.84
2018-05-31T07:57:36.902Z,30.86
2018-05-31T07:58:37.157Z,31.14
2018-05-31T07:59:37.411Z,30.08
2018-05-31T08:00:37.665Z,30.46
2018-05-31T08:01:37.922Z,30.57
2018-05-31T08:02:38.178Z,31.29
2018-05-31T08:03:38.430Z,29.76
2018-05-31T08:04:38.684Z,30.31
2018-05-31T08:05:38.991Z,31.02
2018-05-31T08:06:39.196Z,30.46
2018-05-31T08:07:39.450Z,31.29
2018-05-31T08:08:39.830Z,31.78
2018-05-31T08:09:40.091Z,31.41
2018-05-31T08:10:40.349Z,32.07
2018-05-31T08:11:40.607Z,32.00
2018-05-31T08:12:40.865Z,32.70
2018-05-31T08:13:41.125Z,33.50
2018-05-31T08:14:41.382Z,33.12
2018-05-31T08:15:41.641Z,32.51
2018-05-31T08:16:41.900Z,33.37
2018-05-31T08:17:42.159Z,33.81
2018-05-31T08:18:42.415Z,34.13
2018-05-31T08:19:42.671Z,34.30
2018-05-31T08:20:42.947Z,34.78
2018-05-31T08:21:43.180Z,34.82
2018-05-31T08:22:43.435Z,35.04
2018-05-31T08:23:43.729Z,34.85
2018-05-31T08:24:43.988Z,34.89
2018-05-31T08:25:44.273Z,34.69
2018-05-31T08:26:44.528Z,34.59
2018-05-31T08:27:44.813Z,34.40
2018-05-31T08:28:45.072Z,33.47
2018-05-31T08:29:45.328Z,32.59
2018-05-31T08:30:45.589Z,32.51
2018-05-31T08:31:45.914Z,33.37
2018-05-31T08:32:46.177Z,32.63
2018-05-31T08:33:46.431Z,32.87
2018-05-31T08:34:46.707Z,32.60
2018-05-31T08:35:46.972Z,32.32
2018-05-31T08:36:47.271Z,33.04
2018-05-31T08:37:47.532Z,33.14
2018-05-31T08:38:47.820Z,31.93
2018-05-31T08:39:48.100Z,31.72
2018-05-31T08:40:48.356Z,31.96
2018-05-31T08:41:48.611Z,31.80
2018-05-31T08:42:48.939Z,32.26
2018-05-31T08:43:49.196Z,31.70
2018-05-31T08:44:49.455Z,30.86
2018-05-31T08:45:49.709Z,29.74
2018-05-31T08:46:49.974Z,30.20
2018-05-31T08:47:50.219Z,31.29
2018-05-31T08:48:50.580Z,30.97
2018-05-31T08:49:50.839Z,31.12
2018-05-31T08:50:51.099Z,30.11
2018-05-31T08:51:51.353Z,29.70
2018-05-31T08:52:51.672Z,30.64
2018-05-31T08:53:51.927Z,30.62
2018-05-31T08:54:52.225Z,30.19
2018-05-31T08:55:52.483Z,29.58
2018-05-31T08:56:52.750Z,29.76
2018-05-31T08:57:53.034Z,29.28
2018-05-31T08:58:53.469Z,28.93
2018-05-31T08:59:53.756Z,28.81
2018-05-31T09:00:54.063Z,29.65
2018-05-31T09:01:54.357Z,29.90
2018-05-31T09:02:54.612Z,30.08
2018-05-31T09:03:54.903Z,30.39
2018-05-31T09:04:55.176Z,29.80
2018-05-31T09:05:55.432Z,30.00
2018-05-31T09:06:55.729Z,31.13
2018-05-31T09:07:55.992Z,30.97
2018-05-31T09:08:56.242Z,30.79
2018-05-31T09:09:56.495Z,31.17
2018-05-31T09:10:56.752Z,32.19
2018-05-31T09:11:57.009Z,31.80
2018-05-31T09:12:57.275Z,32.28
2018-05-31T09:13:57.527Z,31.56
2018-05-31T09:14:57.783Z,33.14
2018-05-31T09:15:58.062Z,32.22
2018-05-31T09:16:58.322Z,32.14
2018-05-31T09:17:58.581Z,32.51
2018-05-31T09:18:58.891Z,33.04
2018-05-31T09:19:59.155Z,33.65
2018-05-31T09:20:59.409Z,34.66
2018-05-31T09:21:59.673Z,35.14
2018-05-31T09:22:59.920Z,36.08
2018-05-31T09:24:00.215Z,36.76
2018-05-31T09:25:00.530Z,37.13
2018-05-31T09:26:00.789Z,36.23
2018-05-31T09:27:01.130Z,35.75
2018-05-31T09:28:01.390Z,36.47
2018-05-31T09:29:01.647Z,35.45
2018-05-31T09:30:01.933Z,35.19
2018-05-31T09:31:02.250Z,34.49
2018-05-31T09:32:02.511Z,35.19
2018-05-31T09:33:02.766Z,35.52
2018-05-31T09:34:03.115Z,36.08
2018-05-31T09:35:03.473Z,36.46
2018-05-31T09:36:03.699Z,36.66
2018-05-31T09:37:04.002Z,36.76
2018-05-31T09:38:04.214Z,36.13
2018-05-31T09:39:04.472Z,35.89
2018-05-31T09:40:04.730Z,35.52
2018-05-31T09:41:04.994Z,34.62
2018-05-31T09:42:05.244Z,33.98
2018-05-31T09:43:05.502Z,33.38
2018-05-31T09:44:05.760Z,33.26
2018-05-31T09:45:06.017Z,32.99
2018-05-31T09:46:06.279Z,32.85
2018-05-31T09:47:06.534Z,33.01
2018-05-31T09:48:06.793Z,33.01
2018-05-31T09:49:07.049Z,32.89
2018-05-31T09:50:07.346Z,32.60
2018-05-31T09:51:07.639Z,32.35
2018-05-31T09:52:07.874Z,33.45
2018-05-31T09:53:08.131Z,33.57
2018-05-31T09:54:08.385Z,33.11
2018-05-31T09:55:08.641Z,33.00
2018-05-31T09:56:08.898Z,34.56
2018-05-31T09:57:09.148Z,35.59
2018-05-31T09:58:09.463Z,36.54
2018-05-31T09:59:09.658Z,37.20
2018-05-31T10:00:09.908Z,37.63
2018-05-31T10:01:10.163Z,38.25
2018-05-31T10:02:10.421Z,37.98
2018-05-31T10:03:10.677Z,37.47
2018-05-31T10:04:10.922Z,37.43
2018-05-31T10:05:11.224Z,37.94
2018-05-31T10:06:11.439Z,37.69
2018-05-31T10:07:11.704Z,38.28
2018-05-31T10:08:11.961Z,38.91
2018-05-31T10:09:12.229Z,39.40
2018-05-31T10:10:12.479Z,38.31
2018-05-31T10:11:12.787Z,38.37
2018-05-31T10:12:12.981Z,38.83
2018-05-31T10:13:13.240Z,36.72
2018-05-31T10:14:13.506Z,37.15
2018-05-31T10:15:13.758Z,36.90
2018-05-31T10:16:14.021Z,37.78
2018-05-31T10:17:14.298Z,36.80
2018-05-31T10:18:14.557Z,36.38
2018-05-31T10:19:14.815Z,36.71
2018-05-31T10:20:15.074Z,36.65
2018-05-31T10:21:15.334Z,35.80
2018-05-31T10:22:15.594Z,35.48
2018-05-31T10:23:15.855Z,35.37
2018-05-31T10:24:16.167Z,36.35
2018-05-31T10:25:16.438Z,37.66
2018-05-31T10:26:16.679Z,38.35
2018-05-31T10:27:16.938Z,38.03
2018-05-31T10:28:17.205Z,37.70
2018-05-31T10:29:17.457Z,38.41
2018-05-31T10:30:17.718Z,37.74
2018-05-31T10:31:17.978Z,38.34
2018-05-31T10:32:18.237Z,38.15
2018-05-31T10:33:18.508Z,38.53
2018-05-31T10:34:18.758Z,37.66
2018-05-31T10:35:19.018Z,36.00
2018-05-31T10:36:19.276Z,36.37
2018-05-31T10:37:19.537Z,36.71
2018-05-31T10:38:19.797Z,36.07
2018-05-31T10:39:20.055Z,35.81
2018-05-31T10:40:20.316Z,35.59
2018-05-31T10:41:20.573Z,35.43
2018-05-31T10:42:20.835Z,36.34
2018-05-31T10:43:21.096Z,36.32
2018-05-31T10:44:21.386Z,36.78
2018-05-31T10:45:21.642Z,37.67
2018-05-31T10:46:21.953Z,35.78
2018-05-31T10:47:22.577Z,33.53
2018-05-31T10:48:22.375Z,32.06
2018-05-31T10:49:22.637Z,31.31
2018-05-31T10:50:22.902Z,30.86
2018-05-31T10:51:23.160Z,30.80
2018-05-31T10:52:23.418Z,31.41
2018-05-31T10:53:23.677Z,31.31
2018-05-31T10:54:23.935Z,30.32
2018-05-31T10:55:24.195Z,30.37
2018-05-31T10:56:24.453Z,31.28
2018-05-31T10:57:24.711Z,32.56
2018-05-31T10:58:24.967Z,33.78
2018-05-31T10:59:25.237Z,34.25
2018-05-31T11:00:25.488Z,33.82
2018-05-31T11:01:25.747Z,33.53
2018-05-31T11:02:26.004Z,33.71
2018-05-31T11:03:26.259Z,34.27
2018-05-31T11:04:26.515Z,34.13
2018-05-31T11:05:26.788Z,34.09
2018-05-31T11:06:27.032Z,34.16
2018-05-31T11:07:27.291Z,34.27
2018-05-31T11:08:27.537Z,34.31
2018-05-31T11:09:27.796Z,34.44
2018-05-31T11:10:28.051Z,34.59
2018-05-31T11:11:28.313Z,33.88
2018-05-31T11:12:28.567Z,33.38
2018-05-31T11:13:28.822Z,33.84
2018-05-31T11:14:29.076Z,35.29
2018-05-31T11:15:29.341Z,35.97
2018-05-31T11:16:29.616Z,36.57
2018-05-31T11:17:29.852Z,37.50
2018-05-31T11:18:30.113Z,36.87
2018-05-31T11:19:30.363Z,36.22
2018-05-31T11:20:30.624Z,36.12
2018-05-31T11:21:30.868Z,36.51
2018-05-31T11:22:31.124Z,36.19
2018-05-31T11:23:31.388Z,36.23
2018-05-31T11:24:31.630Z,37.21
2018-05-31T11:25:31.888Z,37.64
2018-05-31T11:26:32.146Z,38.28
2018-05-31T11:27:32.406Z,38.72
2018-05-31T11:28:32.662Z,38.79
2018-05-31T11:29:32.921Z,37.81
2018-05-31T11:30:33.179Z,35.75
2018-05-31T11:31:33.436Z,35.47
2018-05-31T11:32:33.697Z,34.87
2018-05-31T11:33:33.954Z,33.88
2018-05-31T11:34:34.211Z,34.84
2018-05-31T11:35:34.475Z,35.50
2018-05-31T11:36:34.734Z,35.94
2018-05-31T11:37:34.987Z,36.98
2018-05-31T11:38:35.248Z,36.46
2018-05-31T11:39:35.504Z,35.03
2018-05-31T11:40:35.764Z,34.27
2018-05-31T11:41:36.029Z,33.98
2018-05-31T11:42:36.277Z,34.89
2018-05-31T11:43:36.534Z,34.39
2018-05-31T11:44:36.793Z,34.15
2018-05-31T11:45:37.050Z,33.68
2018-05-31T11:46:37.311Z,35.41
2018-05-31T11:47:37.563Z,36.99
2018-05-31T11:48:37.822Z,37.89
2018-05-31T11:49:38.080Z,38.71
2018-05-31T11:50:38.338Z,39.32
2018-05-31T11:51:38.596Z,39.35
2018-05-31T11:52:38.854Z,39.86
2018-05-31T11:53:39.113Z,40.10
2018-05-31T11:54:39.373Z,40.13
2018-05-31T11:55:39.629Z,39.43
2018-05-31T11:56:39.889Z,39.28
2018-05-31T11:57:40.147Z,39.09
2018-05-31T11:58:40.406Z,38.46
2018-05-31T11:59:40.664Z,39.11
2018-05-31T12:00:40.928Z,35.63
2018-05-31T12:01:41.197Z,34.22
2018-05-31T12:02:41.453Z,33.37
2018-05-31T12:03:41.744Z,33.87
2018-05-31T12:04:41.957Z,34.16
2018-05-31T12:05:42.216Z,34.70
2018-05-31T12:06:42.474Z,34.89
2018-05-31T12:07:42.740Z,35.56
2018-05-31T12:08:42.993Z,36.29
2018-05-31T12:09:43.252Z,37.37
2018-05-31T12:10:43.539Z,37.93
2018-05-31T12:11:43.787Z,37.89
2018-05-31T12:12:44.041Z,38.88
2018-05-31T12:13:44.302Z,39.70
2018-05-31T12:14:44.560Z,39.79
2018-05-31T12:15:55.162Z,39.84
2018-05-31T12:16:45.190Z,39.44
2018-05-31T12:17:45.436Z,39.18
2018-05-31T12:18:45.694Z,37.37
2018-05-31T12:19:45.952Z,36.34
2018-05-31T12:20:46.207Z,36.00
2018-05-31T12:21:46.464Z,35.66
2018-05-31T12:22:46.725Z,35.21
2018-05-31T12:23:46.986Z,34.96
2018-05-31T12:24:47.236Z,34.75
2018-05-31T12:25:47.501Z,34.35
2018-05-31T12:26:47.772Z,34.30
2018-05-31T12:27:48.002Z,34.10
2018-05-31T12:28:48.255Z,33.94
2018-05-31T12:29:48.531Z,33.97
2018-05-31T12:30:48.763Z,33.93
2018-05-31T12:31:49.017Z,33.88
2018-05-31T12:32:49.294Z,33.82
2018-05-31T12:33:49.531Z,33.88
2018-05-31T12:34:49.788Z,33.90
2018-05-31T12:35:50.036Z,33.49
2018-05-31T12:36:50.279Z,33.39
2018-05-31T12:37:50.542Z,33.14
2018-05-31T12:38:50.793Z,32.93
2018-05-31T12:39:51.061Z,33.16
2018-05-31T12:40:51.305Z,33.26
2018-05-31T12:41:51.549Z,34.69
2018-05-31T12:42:51.807Z,36.00
2018-05-31T12:43:52.090Z,37.02
2018-05-31T12:44:52.338Z,37.69
2018-05-31T12:45:52.598Z,38.11
2018-05-31T12:46:52.824Z,38.13
2018-05-31T12:47:53.069Z,37.49
2018-05-31T12:48:53.341Z,37.64
2018-05-31T12:49:53.562Z,36.99
2018-05-31T12:50:53.819Z,36.19
2018-05-31T12:51:54.060Z,35.84
2018-05-31T12:52:54.316Z,35.45
2018-05-31T12:53:54.590Z,35.53
2018-05-31T12:54:54.838Z,35.68
2018-05-31T12:55:55.089Z,35.25